New Philadelphia, OH

11:41 PM EST on February 10, 2016 (GMT -0500)
Clever | | Change Station
CLOSE
Current Station
Airport
Location: New Philadelphia,
Elevation: 892 ft
Nearby Weather Stations

Elev 892 ft 40.47 °N, 81.42 °W | Updated 8 minutes ago

Overcast
Overcast
14 °F
Feels Like 5 °F
N
6
Wind Variable Wind from West

Today
High -- | Low -- °F
--% Chance of Precip.
Yesterday
High -- | Low -- °F
Precip. -- in
Pressure 30.01 in
Visibility 10.0 miles
Clouds Overcast 2800 ft
Windchill 5 °F
Dew Point 8 °F
Humidity 77%
Rainfall 0.00 in
Snow Depth Not available.
7:26 AM 5:54 PM
Waxing Crescent, 9% visible
SPECI KPHD 110433Z AUTO 26005KT 10SM OVC028 M10/M13 A3001 RMK AO2 SNE10 P0000 T11001133
Pressure 30.01 in
Visibility 10.0 miles
Clouds Overcast 2800 ft
Windchill 5 °F
Dew Point 8 °F
Humidity 77%
Rainfall 0.00 in
Snow Depth Not available.
7:26 AM 5:54 PM
Waxing Crescent, 9% visible
SPECI KPHD 110433Z AUTO 26005KT 10SM OVC028 M10/M13 A3001 RMK AO2 SNE10 P0000 T11001133

10-Day Weather Forecast

Almanac

Astronomy

Feb. 10, 2016 Rise Set
Actual Time
Civil Twilight
Nautical Twilight
Astronomical Twilight
Moon
Length of Visible Light
Length of Day
Tomorrow will be .
, % of the Moon is Illuminated

Today's Extremes

State Highs State Lows

Community

WunderPhotos

Upload Photos

1,892,015 photos uploaded!

WunderBlog® & News

Nearby

Air Quality

  Air Quality AQ Index Pollutant
Not available.

Snow Depth

Station Depth Elevation

Earthquake Activity

City Distance Mag. Time & Date
Minimum magnitude displayed is 2.5.

Coastal Water Temperatures

Place Temperature

Stations

Nearby Weather Stations

Station Location Temp. Windchill Dew Point Humidity Wind Precip. Elev Updated Type
                   

Watches & Warnings

There are currently no watches in effect.